Time;durP1;ratioP1;P1;durP2;ratioP2;P2;SDS_P1;SDS_P2;PMS_P1;PMS_P2;Temp;Humidity;BMP_temperature;BMP_pressure;BME280_temperature;BME280_humidity;BME280_pressure;Samples;Min_cycle;Max_cycle;Signal;HPM_P1;HPM_P2
2021/06/23 00:01:48;;;;;;;10.70;5.15;;;13.50;99.90;;;;;;5105970;28;20020;-76
2021/06/23 00:04:14;;;;;;;7.55;4.60;;;13.50;99.90;;;;;;5107093;28;20024;-77
2021/06/23 00:06:40;;;;;;;12.35;6.07;;;13.50;99.90;;;;;;5107848;28;20043;-76
2021/06/23 00:09:05;;;;;;;9.95;5.88;;;13.50;99.90;;;;;;5110374;28;20027;-76
2021/06/23 00:11:44;;;;;;;13.07;5.72;;;13.50;99.90;;;;;;5105330;28;20123;-76
2021/06/23 00:14:10;;;;;;;10.85;5.35;;;13.50;99.90;;;;;;5106696;28;20031;-77
2021/06/23 00:16:36;;;;;;;10.27;5.38;;;13.50;99.90;;;;;;5108221;28;20020;-76
2021/06/23 00:19:02;;;;;;;10.43;5.78;;;13.50;99.90;;;;;;5107314;28;20035;-76
2021/06/23 00:21:27;;;;;;;9.60;5.38;;;13.50;99.90;;;;;;5099916;28;20032;-76
2021/06/23 00:23:53;;;;;;;17.02;5.70;;;13.50;99.90;;;;;;5092325;28;20083;-76
2021/06/23 00:26:19;;;;;;;11.55;5.68;;;13.40;99.90;;;;;;5095857;28;20028;-75
2021/06/23 00:28:44;;;;;;;12.75;5.15;;;13.40;99.90;;;;;;5095265;28;20376;-75
2021/06/23 00:31:10;;;;;;;12.75;5.18;;;13.50;99.90;;;;;;5090650;28;20020;-76
2021/06/23 00:33:37;;;;;;;7.00;5.50;;;13.40;99.90;;;;;;5090931;28;20028;-76
2021/06/23 00:36:03;;;;;;;14.20;3.85;;;13.40;99.90;;;;;;5090832;28;20054;-76
2021/06/23 00:38:29;;;;;;;11.68;5.90;;;13.40;99.90;;;;;;5093088;28;20024;-75
2021/06/23 00:40:55;;;;;;;7.97;4.90;;;13.40;99.90;;;;;;5092547;28;20386;-75
2021/06/23 00:43:21;;;;;;;10.05;4.80;;;13.40;99.90;;;;;;5092460;28;20499;-76
2021/06/23 00:45:47;;;;;;;11.38;5.68;;;13.40;99.90;;;;;;5091338;28;20020;-76
2021/06/23 00:48:21;;;;;;;9.40;4.43;;;13.40;99.90;;;;;;5090453;28;20032;-75
2021/06/23 00:50:48;;;;;;;12.57;5.22;;;13.40;99.90;;;;;;5090204;28;20016;-76
2021/06/23 00:53:14;;;;;;;10.93;5.38;;;13.40;99.90;;;;;;5091367;28;20020;-75
2021/06/23 00:55:40;;;;;;;8.15;5.15;;;13.40;99.90;;;;;;5094561;28;20032;-76
2021/06/23 00:58:06;;;;;;;11.52;5.47;;;13.30;99.90;;;;;;5093402;28;20085;-76
2021/06/23 01:00:35;;;;;;;12.27;5.38;;;13.40;99.90;;;;;;5097001;28;20024;-76
2021/06/23 01:03:03;;;;;;;9.50;5.32;;;13.40;99.90;;;;;;5094552;28;20467;-76
2021/06/23 01:05:29;;;;;;;12.15;5.57;;;13.40;99.90;;;;;;5092467;28;20039;-76
2021/06/23 01:07:55;;;;;;;13.27;5.38;;;13.40;99.90;;;;;;5095124;28;20024;-76
2021/06/23 01:10:21;;;;;;;11.00;5.30;;;13.40;99.90;;;;;;5094143;28;20016;-75
2021/06/23 01:13:05;;;;;;;10.82;5.50;;;13.40;99.90;;;;;;5097657;28;20035;-75
2021/06/23 01:15:30;;;;;;;13.43;5.40;;;13.30;99.90;;;;;;5094059;28;20042;-76
2021/06/23 01:17:58;;;;;;;14.02;4.82;;;13.30;99.90;;;;;;5094846;28;20024;-76
2021/06/23 01:20:24;;;;;;;11.13;5.88;;;13.30;99.90;;;;;;5097338;28;20020;-75
2021/06/23 01:22:50;;;;;;;6.93;4.93;;;13.20;99.90;;;;;;5091773;28;20081;-76
2021/06/23 01:25:16;;;;;;;19.85;5.93;;;13.20;99.90;;;;;;5093455;28;20039;-75
2021/06/23 01:27:43;;;;;;;11.20;5.85;;;13.20;99.90;;;;;;5092468;28;20073;-76
2021/06/23 01:30:11;;;;;;;9.13;4.93;;;13.20;99.90;;;;;;5093967;28;20027;-76
2021/06/23 01:32:37;;;;;;;14.85;7.18;;;13.20;99.90;;;;;;5095077;28;20027;-76
2021/06/23 01:35:03;;;;;;;9.98;4.75;;;13.20;99.90;;;;;;5093509;28;20020;-76
2021/06/23 01:37:29;;;;;;;11.48;5.57;;;13.30;99.90;;;;;;5094304;28;20078;-76
2021/06/23 01:39:55;;;;;;;9.52;5.15;;;13.30;99.90;;;;;;5093548;28;20082;-76
2021/06/23 01:42:21;;;;;;;11.57;5.45;;;13.30;99.90;;;;;;5094948;28;20028;-76
2021/06/23 01:44:46;;;;;;;14.90;5.57;;;13.30;99.90;;;;;;5094241;28;20042;-76
2021/06/23 01:47:12;;;;;;;16.25;5.68;;;13.40;99.90;;;;;;5092227;28;20118;-76
2021/06/23 01:49:38;;;;;;;9.88;4.85;;;13.40;99.90;;;;;;5094883;28;20490;-76
2021/06/23 01:52:04;;;;;;;10.07;5.13;;;13.40;99.90;;;;;;5094638;28;20024;-76
2021/06/23 01:54:30;;;;;;;10.30;5.30;;;13.40;99.90;;;;;;5090736;28;20078;-76
2021/06/23 01:56:55;;;;;;;6.60;4.50;;;13.40;99.90;;;;;;5091542;28;20400;-76
2021/06/23 01:59:21;;;;;;;11.23;4.60;;;13.40;99.90;;;;;;5093707;28;20127;-76
2021/06/23 02:01:50;;;;;;;7.55;5.57;;;13.40;99.90;;;;;;5094235;28;20016;-76
2021/06/23 02:04:40;;;;;;;11.50;5.72;;;13.40;99.90;;;;;;5094060;28;20032;-76
2021/06/23 02:07:16;;;;;;;8.15;4.53;;;13.30;99.90;;;;;;5092167;28;20059;-76
2021/06/23 02:10:15;;;;;;;8.13;5.13;;;13.30;99.90;;;;;;5093165;28;20012;-76
2021/06/23 02:13:06;;;;;;;9.35;4.95;;;13.30;99.90;;;;;;5091125;28;20484;-76
2021/06/23 02:15:34;;;;;;;9.75;5.50;;;13.30;99.90;;;;;;5089570;28;20476;-76
2021/06/23 02:18:03;;;;;;;12.60;4.47;;;13.30;99.90;;;;;;5094259;28;20032;-76
2021/06/23 02:20:30;;;;;;;12.27;5.32;;;13.20;99.90;;;;;;5088586;28;20032;-75
2021/06/23 02:22:56;;;;;;;17.63;5.35;;;13.20;99.90;;;;;;5090175;28;20035;-75
2021/06/23 02:25:22;;;;;;;8.88;5.15;;;13.20;99.90;;;;;;5092807;28;20396;-75
2021/06/23 02:27:48;;;;;;;9.93;6.25;;;13.20;99.90;;;;;;5082500;28;20035;-76
2021/06/23 02:30:14;;;;;;;10.48;4.82;;;13.20;99.90;;;;;;5093671;28;20111;-76
2021/06/23 02:32:44;;;;;;;10.00;5.53;;;13.10;99.90;;;;;;5091111;28;20016;-75
2021/06/23 02:35:10;;;;;;;9.35;6.10;;;13.10;99.90;;;;;;5091008;28;20028;-76
2021/06/23 02:37:37;;;;;;;11.32;5.97;;;13.00;99.90;;;;;;5090898;28;20043;-75
2021/06/23 02:40:05;;;;;;;10.48;5.38;;;13.10;99.90;;;;;;5092594;28;20388;-76
2021/06/23 02:42:31;;;;;;;;;;;13.10;99.90;;;;;;5095135;28;20032;-76
2021/06/23 02:44:57;;;;;;;11.70;5.63;;;13.00;99.90;;;;;;5095052;28;19961;-76
2021/06/23 02:47:22;;;;;;;14.68;6.15;;;13.00;99.90;;;;;;5090990;28;20111;-75
2021/06/23 02:49:49;;;;;;;13.68;5.95;;;13.00;99.90;;;;;;5094485;28;20031;-75
2021/06/23 02:52:16;;;;;;;8.63;5.78;;;13.00;99.90;;;;;;5088379;28;20016;-75
2021/06/23 02:54:42;;;;;;;19.83;6.43;;;13.00;99.90;;;;;;5093535;28;20031;-75
2021/06/23 02:57:09;;;;;;;14.27;6.35;;;12.90;99.90;;;;;;5091344;28;20086;-75
2021/06/23 02:59:35;;;;;;;17.33;6.40;;;12.90;99.90;;;;;;5093509;28;20085;-75
2021/06/23 03:02:01;;;;;;;12.88;6.07;;;12.80;99.90;;;;;;5091384;28;20093;-75
2021/06/23 03:04:27;;;;;;;11.40;5.72;;;12.80;99.90;;;;;;5091861;28;20107;-75
2021/06/23 03:06:53;;;;;;;9.85;5.72;;;12.80;99.90;;;;;;5090714;28;20108;-76
2021/06/23 03:09:19;;;;;;;6.88;5.63;;;12.80;99.90;;;;;;5092971;28;20059;-76
2021/06/23 03:11:44;;;;;;;17.13;5.70;;;12.80;99.90;;;;;;5092788;28;20044;-75
2021/06/23 03:14:10;;;;;;;13.88;6.18;;;12.80;99.90;;;;;;5089233;28;20049;-75
2021/06/23 03:16:37;;;;;;;9.27;5.38;;;12.80;99.90;;;;;;5094122;28;20057;-75
2021/06/23 03:19:06;;;;;;;16.88;6.15;;;12.80;99.90;;;;;;5089603;28;20032;-76
2021/06/23 03:21:32;;;;;;;14.15;5.32;;;12.70;99.90;;;;;;5092302;28;20478;-75
2021/06/23 03:23:57;;;;;;;12.43;6.38;;;12.80;99.90;;;;;;5091784;28;20028;-75
2021/06/23 03:26:28;;;;;;;10.55;5.07;;;12.70;99.90;;;;;;5089897;28;20046;-75
2021/06/23 03:28:54;;;;;;;13.93;6.20;;;12.70;99.90;;;;;;5092957;28;20028;-75
2021/06/23 03:31:19;;;;;;;7.13;5.18;;;12.70;99.90;;;;;;5092717;28;20380;-75
2021/06/23 03:33:45;;;;;;;7.65;6.00;;;12.80;99.90;;;;;;5092900;28;20060;-75
2021/06/23 03:36:11;;;;;;;16.20;5.85;;;12.80;99.90;;;;;;5092688;28;20028;-76
2021/06/23 03:38:36;;;;;;;12.95;5.80;;;12.70;99.90;;;;;;5090482;28;20103;-75
2021/06/23 03:41:02;;;;;;;8.93;5.05;;;12.80;99.90;;;;;;5091918;28;20028;-75
2021/06/23 03:43:28;;;;;;;6.68;5.55;;;12.80;99.90;;;;;;5088296;28;20036;-75
2021/06/23 03:45:54;;;;;;;9.02;5.93;;;12.80;99.90;;;;;;5093277;28;20036;-75
2021/06/23 03:48:20;;;;;;;6.00;5.20;;;12.70;99.90;;;;;;5094957;28;20132;-76
2021/06/23 03:50:48;;;;;;;10.70;5.43;;;12.70;99.90;;;;;;5095919;28;20016;-75
2021/06/23 03:53:14;;;;;;;8.88;5.10;;;12.70;99.90;;;;;;5097820;28;20039;-75
2021/06/23 03:55:40;;;;;;;8.90;4.95;;;12.70;99.90;;;;;;5099784;28;20024;-75
2021/06/23 03:58:06;;;;;;;8.98;4.70;;;12.70;99.90;;;;;;5096914;28;20024;-75
2021/06/23 04:00:32;;;;;;;12.10;4.60;;;12.70;99.90;;;;;;5099991;28;20464;-76
2021/06/23 04:02:58;;;;;;;14.13;5.28;;;12.70;99.90;;;;;;5099913;28;20035;-75
2021/06/23 04:05:24;;;;;;;12.63;4.57;;;12.70;99.90;;;;;;5099624;28;20062;-75
2021/06/23 04:07:49;;;;;;;7.70;4.43;;;12.70;99.90;;;;;;5099274;28;20020;-76
2021/06/23 04:10:16;;;;;;;12.02;4.50;;;12.80;99.90;;;;;;5104051;28;20103;-76
2021/06/23 04:12:42;;;;;;;8.97;4.60;;;12.80;99.90;;;;;;5099601;28;20046;-76
2021/06/23 04:15:11;;;;;;;15.75;5.18;;;12.80;99.90;;;;;;5100281;28;20258;-76
2021/06/23 04:17:37;;;;;;;10.10;5.40;;;12.80;99.90;;;;;;5099298;28;20051;-75
2021/06/23 04:20:05;;;;;;;8.98;4.85;;;12.80;99.90;;;;;;5101328;28;20024;-76
2021/06/23 04:22:31;;;;;;;7.15;4.60;;;12.80;99.90;;;;;;5102854;28;20020;-76
2021/06/23 04:24:56;;;;;;;8.73;5.60;;;12.90;99.90;;;;;;5096855;28;20097;-75
2021/06/23 04:27:23;;;;;;;8.80;4.65;;;12.90;99.90;;;;;;5092546;28;20052;-75
2021/06/23 04:29:49;;;;;;;8.52;4.53;;;13.00;99.90;;;;;;5094666;28;20106;-75
2021/06/23 04:32:15;;;;;;;11.40;5.28;;;13.00;99.90;;;;;;5095401;28;20019;-75
2021/06/23 04:34:41;;;;;;;16.30;5.40;;;13.00;99.90;;;;;;5095477;28;20032;-75
2021/06/23 04:37:07;;;;;;;11.45;4.55;;;12.90;99.90;;;;;;5095297;28;20627;-76
2021/06/23 04:39:32;;;;;;;9.63;4.50;;;12.90;99.90;;;;;;5094105;28;20027;-75
2021/06/23 04:41:58;;;;;;;12.48;4.75;;;12.90;99.90;;;;;;5096077;28;20422;-75
2021/06/23 04:44:24;;;;;;;6.65;4.45;;;12.90;99.90;;;;;;5093925;28;20026;-76
2021/06/23 04:46:49;;;;;;;7.53;4.20;;;13.00;99.90;;;;;;5094198;28;20028;-75
2021/06/23 04:49:15;;;;;;;12.48;4.25;;;13.10;99.90;;;;;;5096220;28;20488;-75
2021/06/23 04:51:40;;;;;;;12.23;3.88;;;13.10;99.90;;;;;;5094649;28;20063;-75
2021/06/23 04:54:06;;;;;;;16.38;4.85;;;13.20;99.90;;;;;;5094298;28;20016;-75
2021/06/23 04:56:32;;;;;;;8.70;4.05;;;13.20;99.90;;;;;;5097753;28;20024;-75
2021/06/23 04:58:58;;;;;;;9.98;3.83;;;13.30;99.90;;;;;;5095610;28;20027;-75
2021/06/23 05:01:24;;;;;;;13.45;4.68;;;13.30;99.90;;;;;;5096083;28;20084;-75
2021/06/23 05:03:50;;;;;;;12.38;4.22;;;13.40;99.90;;;;;;5091164;28;20020;-75
2021/06/23 05:06:16;;;;;;;12.10;5.22;;;13.50;99.90;;;;;;5095909;28;20032;-75
2021/06/23 05:08:42;;;;;;;7.38;4.20;;;13.50;99.90;;;;;;5093991;28;20036;-75
2021/06/23 05:11:08;;;;;;;7.43;3.75;;;13.60;99.90;;;;;;5093449;28;20157;-75
2021/06/23 05:13:38;;;;;;;8.50;3.95;;;13.60;99.90;;;;;;5093283;28;20028;-75
2021/06/23 05:16:06;;;;;;;15.93;4.18;;;13.70;99.90;;;;;;5096274;28;20024;-75
2021/06/23 05:18:34;;;;;;;16.80;3.95;;;13.60;99.90;;;;;;5089574;28;20080;-75
2021/06/23 05:21:01;;;;;;;16.30;4.18;;;13.50;99.90;;;;;;5095864;28;20153;-75
2021/06/23 05:23:27;;;;;;;14.30;4.40;;;13.50;99.90;;;;;;5095082;28;20081;-75
2021/06/23 05:25:53;;;;;;;11.73;3.70;;;13.50;99.90;;;;;;5095987;28;20099;-75
2021/06/23 05:28:19;;;;;;;12.23;3.50;;;13.50;99.90;;;;;;5095784;28;20038;-75
2021/06/23 05:30:44;;;;;;;11.85;4.00;;;13.50;99.90;;;;;;5084134;28;20067;-75
2021/06/23 05:33:10;;;;;;;15.63;4.40;;;13.60;99.90;;;;;;5082695;28;20388;-76
2021/06/23 05:35:35;;;;;;;10.68;3.92;;;13.70;99.90;;;;;;5090236;28;20028;-76
2021/06/23 05:38:01;;;;;;;14.02;4.65;;;13.70;99.90;;;;;;5090524;28;20028;-75
2021/06/23 05:40:27;;;;;;;11.88;3.65;;;13.70;99.90;;;;;;5077415;28;20404;-75
2021/06/23 05:42:52;;;;;;;12.18;3.13;;;13.70;99.90;;;;;;5085120;28;20027;-75
2021/06/23 05:45:18;;;;;;;15.18;3.30;;;13.70;99.90;;;;;;5094278;28;20032;-75
2021/06/23 05:47:44;;;;;;;10.95;5.15;;;13.70;99.90;;;;;;5094069;28;20024;-75
2021/06/23 05:50:09;;;;;;;8.38;3.35;;;13.80;99.90;;;;;;5094433;28;20369;-75
2021/06/23 05:52:35;;;;;;;4.22;2.80;;;13.80;99.90;;;;;;5090386;28;20020;-75
2021/06/23 05:55:01;;;;;;;15.95;2.75;;;13.90;99.90;;;;;;5095222;28;20095;-75
2021/06/23 05:57:27;;;;;;;7.35;3.00;;;14.00;99.90;;;;;;5094196;28;20506;-75
2021/06/23 05:59:52;;;;;;;11.68;3.10;;;14.00;99.90;;;;;;5094086;28;20032;-75
2021/06/23 06:02:18;;;;;;;12.00;2.83;;;14.00;99.90;;;;;;5096134;28;20032;-75
2021/06/23 06:04:44;;;;;;;12.35;2.58;;;14.00;99.90;;;;;;5094281;28;20020;-75
2021/06/23 06:07:09;;;;;;;7.00;2.55;;;14.00;99.90;;;;;;5094124;28;20016;-76
2021/06/23 06:09:35;;;;;;;11.00;3.03;;;14.10;99.90;;;;;;5091673;28;20028;-75
2021/06/23 06:12:01;;;;;;;11.95;2.67;;;14.20;99.90;;;;;;5089499;28;20036;-75
2021/06/23 06:14:26;;;;;;;18.77;3.63;;;14.30;99.90;;;;;;5071475;28;20036;-75
2021/06/23 06:16:52;;;;;;;6.85;2.38;;;14.20;99.90;;;;;;5087145;28;20024;-76
2021/06/23 06:19:18;;;;;;;11.07;4.95;;;14.30;99.90;;;;;;5094714;28;20115;-76
2021/06/23 06:21:43;;;;;;;8.35;2.30;;;14.40;99.90;;;;;;5085012;28;20582;-75
2021/06/23 06:24:09;;;;;;;8.30;2.33;;;14.40;99.90;;;;;;5097173;28;20036;-75
2021/06/23 06:26:35;;;;;;;10.45;2.28;;;14.40;99.90;;;;;;5094743;28;20032;-75
2021/06/23 06:29:00;;;;;;;12.00;3.10;;;14.50;99.90;;;;;;5094504;28;20169;-76
2021/06/23 06:31:26;;;;;;;11.43;2.63;;;14.50;99.90;;;;;;5088349;28;20488;-75
2021/06/23 06:33:52;;;;;;;19.05;3.22;;;14.60;99.90;;;;;;5089487;28;20024;-75
2021/06/23 06:36:18;;;;;;;11.52;2.65;;;14.70;99.90;;;;;;5099020;28;20104;-75
2021/06/23 06:38:47;;;;;;;11.25;2.67;;;14.70;99.90;;;;;;5094082;28;20024;-75
2021/06/23 06:41:12;;;;;;;6.88;2.25;;;14.80;99.90;;;;;;5094483;28;20032;-75
2021/06/23 06:43:38;;;;;;;8.63;2.67;;;15.00;99.90;;;;;;5094548;28;20038;-75
2021/06/23 06:46:04;;;;;;;11.02;2.80;;;15.10;99.90;;;;;;5092757;28;20024;-76
2021/06/23 06:48:29;;;;;;;11.82;2.60;;;15.10;99.90;;;;;;5095020;28;20408;-76
2021/06/23 06:50:55;;;;;;;3.55;2.30;;;15.00;99.90;;;;;;5092876;28;20039;-76
2021/06/23 06:53:21;;;;;;;5.90;2.00;;;15.10;99.90;;;;;;5094434;28;20028;-76
2021/06/23 06:55:47;;;;;;;4.40;1.88;;;15.20;99.90;;;;;;5097418;28;20020;-76
2021/06/23 06:58:13;;;;;;;13.88;3.38;;;15.30;99.90;;;;;;5113519;28;20498;-77
2021/06/23 07:00:39;;;;;;;12.55;3.30;;;15.30;99.90;;;;;;5113185;28;20023;-76
2021/06/23 07:03:05;;;;;;;6.25;1.70;;;15.30;99.90;;;;;;5079088;28;20036;-75
2021/06/23 07:05:31;;;;;;;12.10;2.15;;;15.30;99.90;;;;;;5112685;28;20028;-75
2021/06/23 07:07:56;;;;;;;11.68;1.80;;;15.40;99.90;;;;;;5109364;28;20562;-76
2021/06/23 07:10:22;;;;;;;9.93;2.78;;;15.40;99.90;;;;;;5093140;28;20069;-76
2021/06/23 07:12:48;;;;;;;11.20;2.13;;;15.40;99.90;;;;;;5093099;28;20032;-76
2021/06/23 07:15:14;;;;;;;9.10;1.98;;;15.30;99.90;;;;;;5094626;28;20396;-76
2021/06/23 07:17:40;;;;;;;8.27;2.05;;;15.20;99.90;;;;;;5094975;28;20047;-75
2021/06/23 07:20:06;;;;;;;6.43;1.63;;;15.20;99.90;;;;;;5094287;28;20387;-76
2021/06/23 07:22:32;;;;;;;11.32;2.25;;;15.20;99.90;;;;;;5095452;28;20036;-76
2021/06/23 07:24:58;;;;;;;3.92;1.70;;;15.40;99.90;;;;;;5095964;28;20035;-76
2021/06/23 07:27:24;;;;;;;6.15;2.00;;;15.40;99.90;;;;;;5095520;28;20503;-75
2021/06/23 07:29:51;;;;;;;8.95;1.90;;;15.40;99.90;;;;;;5096626;28;20476;-76
2021/06/23 07:32:29;;;;;;;6.88;2.08;;;15.50;99.90;;;;;;5095631;28;20039;-76
2021/06/23 07:37:39;;;;;;;7.57;2.38;;;15.60;99.90;;;;;;5106313;28;20024;-76
2021/06/23 07:40:05;;;;;;;7.00;1.80;;;15.60;99.90;;;;;;5108201;28;20087;-75
2021/06/23 07:42:30;;;;;;;7.65;2.10;;;15.60;99.90;;;;;;5114107;28;20028;-75
2021/06/23 07:44:58;;;;;;;6.10;2.45;;;15.50;99.90;;;;;;5114999;28;20026;-76
2021/06/23 07:47:26;;;;;;;7.30;2.25;;;15.40;99.90;;;;;;5114323;28;20092;-75
2021/06/23 07:49:52;;;;;;;5.78;2.28;;;15.40;99.90;;;;;;5115256;28;20051;-76
2021/06/23 07:52:27;;;;;;;16.08;2.70;;;15.40;99.90;;;;;;5115661;28;20044;-76
2021/06/23 08:11:19;;;;;;;6.65;2.05;;;15.30;99.90;;;;;;5098567;28;20066;-75
2021/06/23 08:13:46;;;;;;;7.10;1.92;;;15.40;99.90;;;;;;5099024;28;20027;-76
2021/06/23 08:16:11;;;;;;;4.25;2.50;;;15.40;99.90;;;;;;5104719;28;20111;-76
2021/06/23 08:18:37;;;;;;;10.43;2.92;;;15.50;99.90;;;;;;5107252;28;20077;-76
2021/06/23 08:21:03;;;;;;;4.43;1.85;;;15.70;99.90;;;;;;5104538;28;20020;-76
2021/06/23 08:23:29;;;;;;;11.15;2.33;;;16.00;99.90;;;;;;5098634;28;20063;-82
2021/06/23 08:25:54;;;;;;;4.40;2.08;;;16.30;99.90;;;;;;5097492;28;20093;-79
2021/06/23 08:28:20;;;;;;;8.80;2.03;;;16.50;99.90;;;;;;5096226;28;20404;-80
2021/06/23 08:30:46;;;;;;;7.85;2.30;;;16.80;99.90;;;;;;5096654;28;20455;-79
2021/06/23 08:33:11;;;;;;;11.20;1.90;;;16.80;99.90;;;;;;5097404;28;20116;-81
2021/06/23 08:35:37;;;;;;;6.10;1.60;;;16.70;99.90;;;;;;5096785;28;20093;-79
2021/06/23 08:38:03;;;;;;;7.07;2.97;;;16.60;99.90;;;;;;5104356;28;20077;-78
2021/06/23 08:40:28;;;;;;;18.45;3.45;;;16.50;99.90;;;;;;5098218;28;20131;-78
2021/06/23 08:42:54;;;;;;;10.50;2.17;;;16.40;99.90;;;;;;5075361;28;20066;-78
2021/06/23 08:45:20;;;;;;;11.95;2.22;;;16.30;99.90;;;;;;5075015;28;20016;-79
2021/06/23 08:47:48;;;;;;;16.70;2.53;;;16.00;99.90;;;;;;5076668;28;20036;-79
2021/06/23 08:50:20;;;;;;;11.02;2.10;;;15.90;99.90;;;;;;5090435;28;20031;-77
2021/06/23 08:52:46;;;;;;;5.13;2.03;;;15.90;99.90;;;;;;5117424;28;20057;-79
2021/06/23 08:55:18;;;;;;;4.22;1.52;;;15.90;99.90;;;;;;5116535;28;20032;-80
2021/06/23 08:57:45;;;;;;;3.58;1.50;;;16.00;99.90;;;;;;5117596;28;20024;-77
2021/06/23 09:00:11;;;;;;;9.95;2.22;;;16.10;99.90;;;;;;5109712;28;20028;-78
2021/06/23 09:02:37;;;;;;;8.55;1.73;;;16.10;99.90;;;;;;5095212;28;20027;-78
2021/06/23 09:05:07;;;;;;;9.73;3.55;;;16.20;99.90;;;;;;5095459;28;20111;-78
2021/06/23 09:07:42;;;;;;;6.22;2.42;;;16.20;99.90;;;;;;5096433;28;20473;-81
2021/06/23 09:10:28;;;;;;;5.80;1.85;;;16.30;99.90;;;;;;5104762;28;20030;-79
2021/06/23 09:13:11;;;;;;;3.85;1.77;;;16.40;99.90;;;;;;5107887;28;20089;-75
2021/06/23 09:15:50;;;;;;;8.45;2.05;;;16.40;99.90;;;;;;5116855;28;20042;-78
2021/06/23 09:18:17;;;;;;;10.95;3.83;;;16.30;99.90;;;;;;5116124;28;20059;-77
2021/06/23 09:20:45;;;;;;;5.70;1.87;;;16.20;99.90;;;;;;5104986;28;20024;-79
2021/06/23 09:23:11;;;;;;;11.05;2.00;;;16.10;99.90;;;;;;5097076;28;20086;-79
2021/06/23 09:25:38;;;;;;;5.13;1.83;;;16.10;99.90;;;;;;5094995;28;20028;-82
2021/06/23 09:28:12;;;;;;;10.43;2.85;;;15.90;99.90;;;;;;5100530;28;20016;-76
2021/06/23 09:30:40;;;;;;;13.07;2.15;;;15.80;99.90;;;;;;5087853;28;20027;-80
2021/06/23 09:33:09;;;;;;;9.10;2.88;;;15.70;99.90;;;;;;5108096;28;20024;-78
2021/06/23 09:35:36;;;;;;;4.70;1.75;;;15.50;99.90;;;;;;5105538;28;20028;-77
2021/06/23 09:38:02;;;;;;;14.90;2.87;;;15.50;99.90;;;;;;5109602;28;20306;-77
2021/06/23 09:40:31;;;;;;;8.60;2.22;;;15.50;99.90;;;;;;5103734;28;20413;-79
2021/06/23 09:43:00;;;;;;;8.73;2.20;;;15.40;99.90;;;;;;5117317;28;20071;-75
2021/06/23 09:45:30;;;;;;;13.50;2.67;;;15.40;99.90;;;;;;5114889;28;20392;-75
2021/06/23 09:48:04;;;;;;;13.02;2.05;;;15.50;99.90;;;;;;5116422;28;20030;-75
2021/06/23 09:50:32;;;;;;;15.70;2.90;;;15.50;99.90;;;;;;5111157;28;20020;-74
2021/06/23 09:53:09;;;;;;;8.75;2.45;;;15.50;99.90;;;;;;5105401;28;20118;-75
2021/06/23 09:55:39;;;;;;;;;;;15.70;99.90;;;;;;5094450;28;20104;-75
2021/06/23 09:58:20;;;;;;;7.53;2.60;;;15.70;99.90;;;;;;5097609;28;19916;-75
2021/06/23 10:01:02;;;;;;;10.93;3.10;;;15.90;99.90;;;;;;5094214;28;20024;-75
2021/06/23 10:03:34;;;;;;;7.18;1.60;;;16.10;99.90;;;;;;5094429;28;20054;-75
2021/06/23 10:06:25;;;;;;;9.70;2.58;;;16.20;99.90;;;;;;5109464;28;20495;-77
2021/06/23 10:08:52;;;;;;;7.57;2.22;;;16.30;99.90;;;;;;5077721;28;20115;-76
2021/06/23 10:11:30;;;;;;;5.67;2.00;;;16.30;99.90;;;;;;5073702;28;20036;-76
2021/06/23 10:13:56;;;;;;;8.20;1.75;;;16.40;99.90;;;;;;5075520;28;20032;-78
2021/06/23 10:16:26;;;;;;;5.05;1.70;;;16.50;99.90;;;;;;5077372;28;20393;-79
2021/06/23 10:18:55;;;;;;;6.20;1.95;;;16.60;99.90;;;;;;5090177;28;20040;-80
2021/06/23 10:21:22;;;;;;;12.18;1.88;;;16.60;99.90;;;;;;5082860;28;20170;-80
2021/06/23 10:23:49;;;;;;;7.95;1.67;;;16.60;99.90;;;;;;5083585;28;20040;-81
2021/06/23 10:26:16;;;;;;;7.65;2.05;;;16.50;99.90;;;;;;5087595;28;20032;-80
2021/06/23 10:28:45;;;;;;;6.45;1.90;;;16.50;99.90;;;;;;5085520;28;20119;-82
2021/06/23 10:31:11;;;;;;;14.63;2.22;;;16.50;99.90;;;;;;5094190;28;20027;-82
2021/06/23 10:33:39;;;;;;;10.90;1.90;;;16.50;99.90;;;;;;5092808;28;20035;-79
2021/06/23 10:36:06;;;;;;;7.10;2.55;;;16.60;99.90;;;;;;5096878;28;20016;-78
2021/06/23 10:38:34;;;;;;;10.63;1.73;;;16.90;99.90;;;;;;5093548;28;20032;-79
2021/06/23 10:40:59;;;;;;;;;;;17.20;99.90;;;;;;5095648;28;20070;-81
2021/06/23 10:43:25;;;;;;;10.07;2.05;;;17.30;99.90;;;;;;5092994;28;19908;-81
2021/06/23 10:45:53;;;;;;;6.70;1.77;;;17.70;99.90;;;;;;5095623;28;20027;-78
2021/06/23 10:48:19;;;;;;;4.63;1.48;;;17.90;99.90;;;;;;5096443;28;20147;-78
2021/06/23 10:50:45;;;;;;;7.78;1.83;;;18.10;99.90;;;;;;5113906;28;20102;-80
2021/06/23 10:53:35;;;;;;;6.22;1.65;;;18.20;99.90;;;;;;5108196;28;20019;-82
2021/06/23 10:56:04;;;;;;;5.72;1.92;;;18.50;99.90;;;;;;5107914;28;20084;-76
2021/06/23 10:58:32;;;;;;;4.13;1.50;;;18.70;99.90;;;;;;5096236;28;20027;-78
2021/06/23 11:01:12;;;;;;;5.43;1.77;;;18.70;99.90;;;;;;5092755;28;20032;-78
2021/06/23 11:04:02;;;;;;;6.82;1.63;;;18.90;99.90;;;;;;5092686;28;20503;-81
2021/06/23 11:06:39;;;;;;;8.13;1.77;;;19.00;99.90;;;;;;5090901;28;20040;-81
2021/06/23 11:09:25;;;;;;;7.93;1.60;;;18.80;99.90;;;;;;5093544;28;20511;-77
2021/06/23 11:11:51;;;;;;;8.57;2.08;;;18.60;99.90;;;;;;5092146;28;20474;-78
2021/06/23 11:14:19;;;;;;;7.72;1.52;;;18.70;99.90;;;;;;5093836;28;20016;-75
2021/06/23 11:16:45;;;;;;;7.85;2.13;;;18.90;99.90;;;;;;5093050;28;20436;-76
2021/06/23 11:19:11;;;;;;;7.38;1.60;;;18.90;99.90;;;;;;5094739;28;20071;-78
2021/06/23 11:21:37;;;;;;;7.82;1.90;;;19.00;99.90;;;;;;5091709;28;20046;-75
2021/06/23 11:24:11;;;;;;;4.00;2.13;;;18.70;99.90;;;;;;5092017;28;20118;-79
2021/06/23 11:26:38;;;;;;;5.05;1.95;;;18.60;99.90;;;;;;5087653;28;20075;-80
2021/06/23 11:29:10;;;;;;;14.15;1.45;;;18.50;99.90;;;;;;5091019;28;20028;-78
2021/06/23 11:31:49;;;;;;;4.78;1.83;;;18.50;99.90;;;;;;5090278;28;20063;-77
2021/06/23 11:34:43;;;;;;;7.53;2.63;;;18.70;99.90;;;;;;5092385;28;20035;-77
2021/06/23 11:37:16;;;;;;;3.67;1.90;;;19.00;99.90;;;;;;5090429;28;20043;-76
2021/06/23 11:39:43;;;;;;;4.25;1.70;;;19.20;99.90;;;;;;5077345;28;20017;-79
2021/06/23 11:42:10;;;;;;;9.60;1.63;;;19.00;99.90;;;;;;5089828;28;20396;-77
2021/06/23 11:44:37;;;;;;;2.63;1.75;;;18.60;99.90;;;;;;5088883;28;20455;-76
2021/06/23 11:47:03;;;;;;;5.95;1.40;;;18.30;99.90;;;;;;5106652;28;20012;-78
2021/06/23 11:49:30;;;;;;;2.75;1.40;;;18.30;99.90;;;;;;5097827;28;20015;-80
2021/06/23 11:52:00;;;;;;;6.82;1.63;;;18.20;99.90;;;;;;5111966;28;20443;-77
2021/06/23 11:54:26;;;;;;;8.27;1.75;;;18.00;99.90;;;;;;5111533;28;20104;-78
2021/06/23 11:56:52;;;;;;;8.48;1.50;;;18.00;99.90;;;;;;5114459;28;20028;-78
2021/06/23 11:59:18;;;;;;;6.22;2.03;;;18.10;99.90;;;;;;5110457;28;20078;-78
2021/06/23 12:01:43;;;;;;;3.42;1.75;;;18.10;99.90;;;;;;5100258;28;20016;-78
2021/06/23 12:04:09;;;;;;;5.75;1.58;;;18.20;99.90;;;;;;5086991;28;20028;-77
2021/06/23 12:06:36;;;;;;;13.15;2.03;;;18.10;99.90;;;;;;5090099;28;20047;-78
2021/06/23 12:09:02;;;;;;;7.13;2.20;;;18.00;99.90;;;;;;5108716;28;20040;-78
2021/06/23 12:11:27;;;;;;;8.25;1.90;;;17.80;99.90;;;;;;5105204;28;20035;-74
2021/06/23 12:13:53;;;;;;;4.97;2.28;;;17.60;99.90;;;;;;5097025;28;20518;-74
2021/06/23 12:16:20;;;;;;;5.03;1.60;;;17.50;99.90;;;;;;5095241;28;20089;-74
2021/06/23 12:18:46;;;;;;;6.03;1.90;;;17.60;99.90;;;;;;5096777;28;20112;-75
2021/06/23 12:21:11;;;;;;;9.30;1.77;;;17.60;99.90;;;;;;5095952;28;20063;-75
2021/06/23 12:23:37;;;;;;;5.53;1.58;;;17.60;99.90;;;;;;5097123;28;20400;-75
2021/06/23 12:26:03;;;;;;;8.63;1.75;;;17.60;99.90;;;;;;5111265;28;20065;-75
2021/06/23 12:28:29;;;;;;;3.60;2.05;;;17.60;99.90;;;;;;5113527;28;20061;-75
2021/06/23 12:30:55;;;;;;;6.03;2.45;;;17.50;99.90;;;;;;5113908;28;20471;-74
2021/06/23 12:33:20;;;;;;;6.03;1.60;;;17.60;99.90;;;;;;5112809;28;20031;-75
2021/06/23 12:35:46;;;;;;;6.10;1.45;;;17.80;99.90;;;;;;5112786;28;20024;-75
2021/06/23 12:38:15;;;;;;;3.55;1.48;;;17.80;99.90;;;;;;5113558;28;20415;-74
2021/06/23 12:40:42;;;;;;;5.82;1.90;;;17.90;99.90;;;;;;5111356;28;20036;-76
2021/06/23 12:43:11;;;;;;;3.67;1.77;;;18.00;99.90;;;;;;5112769;28;20043;-76
2021/06/23 12:45:41;;;;;;;4.88;1.80;;;18.00;99.90;;;;;;5114746;28;20031;-79
2021/06/23 12:48:07;;;;;;;3.78;1.40;;;18.10;99.90;;;;;;5114131;28;20051;-76
2021/06/23 12:50:34;;;;;;;2.83;1.83;;;18.00;99.90;;;;;;5100513;28;20035;-77
2021/06/23 12:53:00;;;;;;;5.27;1.33;;;18.00;99.90;;;;;;5095847;28;20060;-77
2021/06/23 12:55:25;;;;;;;7.72;3.33;;;17.90;99.90;;;;;;5109060;28;20380;-75
2021/06/23 12:57:51;;;;;;;4.65;1.40;;;17.90;99.90;;;;;;5099692;28;20089;-77
2021/06/23 13:00:19;;;;;;;3.65;1.55;;;17.90;99.90;;;;;;5097159;28;20584;-76
2021/06/23 13:02:45;;;;;;;5.07;2.60;;;18.00;99.90;;;;;;5087421;28;20104;-77
2021/06/23 13:05:12;;;;;;;4.28;1.90;;;18.00;99.90;;;;;;5088271;28;20435;-77